createdAt,value
2023-02-28T00:01:36.541Z,4.30
2023-02-28T00:04:05.112Z,4.30
2023-02-28T00:06:33.372Z,4.30
2023-02-28T00:09:01.670Z,4.30
2023-02-28T00:11:30.568Z,4.30
2023-02-28T00:14:01.229Z,4.30
2023-02-28T00:16:29.514Z,4.30
2023-02-28T00:18:57.685Z,4.20
2023-02-28T00:21:25.992Z,4.20
2023-02-28T00:23:54.387Z,4.20
2023-02-28T00:26:22.584Z,4.10
2023-02-28T00:28:53.593Z,4.10
2023-02-28T00:31:23.223Z,4.20
2023-02-28T00:33:52.669Z,4.10
2023-02-28T00:36:22.748Z,4.10
2023-02-28T00:38:51.194Z,4.20
2023-02-28T00:41:19.477Z,4.20
2023-02-28T00:43:49.429Z,4.10
2023-02-28T00:46:17.923Z,4.10
2023-02-28T00:48:47.597Z,4.00
2023-02-28T00:51:16.716Z,4.00
2023-02-28T00:53:44.976Z,4.00
2023-02-28T00:56:13.238Z,4.00
2023-02-28T00:58:41.720Z,4.00
2023-02-28T01:01:10.118Z,4.00
2023-02-28T01:03:40.572Z,3.90
2023-02-28T01:06:10.366Z,3.90
2023-02-28T01:08:40.380Z,3.80
2023-02-28T01:11:13.665Z,3.70
2023-02-28T01:13:43.402Z,3.70
2023-02-28T01:16:15.239Z,3.70
2023-02-28T01:18:43.730Z,3.70
2023-02-28T01:21:17.493Z,3.60
2023-02-28T01:23:47.554Z,3.60
2023-02-28T01:26:23.159Z,3.70
2023-02-28T01:28:52.978Z,3.70
2023-02-28T01:31:23.135Z,3.70
2023-02-28T01:33:52.076Z,3.60
2023-02-28T01:36:25.118Z,3.60
2023-02-28T01:38:55.331Z,3.60
2023-02-28T01:41:28.416Z,3.60
2023-02-28T01:44:06.711Z,3.60
2023-02-28T01:46:37.386Z,3.50
2023-02-28T01:49:13.782Z,3.50
2023-02-28T01:51:51.442Z,3.50
2023-02-28T01:54:25.977Z,3.50
2023-02-28T01:57:01.128Z,3.50
2023-02-28T01:59:36.533Z,3.50
2023-02-28T02:02:05.501Z,3.50
2023-02-28T02:04:40.751Z,3.40
2023-02-28T02:07:11.690Z,3.40
2023-02-28T02:09:39.938Z,3.30
2023-02-28T02:12:24.310Z,3.30
2023-02-28T02:15:05.653Z,3.40
2023-02-28T02:17:41.519Z,3.40
2023-02-28T02:21:10.380Z,3.40
2023-02-28T02:24:18.182Z,3.40
2023-02-28T02:27:19.954Z,3.40
2023-02-28T02:30:35.272Z,3.40
2023-02-28T02:34:16.009Z,3.40
2023-02-28T02:36:53.058Z,3.40
2023-02-28T02:39:33.062Z,3.40
2023-02-28T02:42:13.721Z,3.40
2023-02-28T02:44:48.549Z,3.40
2023-02-28T02:47:25.150Z,3.30
2023-02-28T02:49:58.366Z,3.20
2023-02-28T02:52:38.985Z,3.30
2023-02-28T02:55:13.251Z,3.30
2023-02-28T02:57:49.435Z,3.30
2023-02-28T03:00:23.944Z,3.30
2023-02-28T03:02:54.872Z,3.20
2023-02-28T03:05:29.124Z,3.10
2023-02-28T03:07:58.812Z,3.00
2023-02-28T03:10:38.645Z,2.90
2023-02-28T03:13:32.191Z,3.00
2023-02-28T03:16:25.084Z,3.00
2023-02-28T03:19:03.426Z,2.90
2023-02-28T03:21:44.333Z,2.80
2023-02-28T03:24:23.493Z,2.80
2023-02-28T03:27:01.686Z,2.90
2023-02-28T03:29:37.081Z,2.80
2023-02-28T03:32:15.645Z,2.80
2023-02-28T03:34:51.755Z,2.70
2023-02-28T03:37:26.069Z,2.70
2023-02-28T03:40:01.408Z,2.70
2023-02-28T03:42:34.837Z,2.70
2023-02-28T03:45:10.875Z,2.70
2023-02-28T03:47:46.784Z,2.70
2023-02-28T03:50:22.423Z,2.60
2023-02-28T03:53:01.032Z,2.70
2023-02-28T03:55:35.089Z,2.60
2023-02-28T03:58:15.072Z,2.50
2023-02-28T04:00:50.064Z,2.50
2023-02-28T04:03:18.397Z,2.30
2023-02-28T04:05:53.947Z,2.20
2023-02-28T04:08:24.096Z,2.10
2023-02-28T04:11:01.167Z,2.00
2023-02-28T04:13:29.517Z,1.80
2023-02-28T04:15:57.782Z,1.80
2023-02-28T04:18:26.073Z,1.80
2023-02-28T04:20:54.289Z,1.70
2023-02-28T04:23:22.497Z,1.80
2023-02-28T04:25:52.052Z,1.80
2023-02-28T04:28:21.794Z,1.70
2023-02-28T04:30:50.170Z,1.60
2023-02-28T04:33:18.416Z,1.50
2023-02-28T04:35:46.650Z,1.50
2023-02-28T04:38:14.919Z,1.50
2023-02-28T04:40:43.257Z,1.40
2023-02-28T04:43:11.437Z,1.50
2023-02-28T04:45:41.002Z,1.50
2023-02-28T04:48:09.198Z,1.40
2023-02-28T04:50:37.449Z,1.30
2023-02-28T04:53:05.675Z,1.30
2023-02-28T04:55:34.383Z,1.30
2023-02-28T04:58:03.008Z,1.30
2023-02-28T05:00:31.382Z,1.20
2023-02-28T05:03:01.009Z,1.20
2023-02-28T05:05:29.398Z,1.20
2023-02-28T05:07:57.685Z,1.20
2023-02-28T05:10:26.394Z,1.20
2023-02-28T05:12:54.665Z,1.10
2023-02-28T05:15:23.349Z,1.10
2023-02-28T05:17:51.667Z,1.10
2023-02-28T05:20:21.904Z,1.00
2023-02-28T05:22:51.514Z,1.00
2023-02-28T05:25:23.695Z,1.00
2023-02-28T05:27:52.007Z,1.00
2023-02-28T05:30:20.851Z,0.90
2023-02-28T05:32:53.636Z,0.90
2023-02-28T05:35:23.471Z,0.90
2023-02-28T05:37:51.946Z,0.90
2023-02-28T05:40:21.492Z,0.90
2023-02-28T05:42:51.940Z,0.90
2023-02-28T05:45:20.311Z,0.90
2023-02-28T05:47:48.531Z,0.80
2023-02-28T05:50:17.553Z,0.80
2023-02-28T05:52:51.354Z,0.70
2023-02-28T05:55:19.737Z,0.70
2023-02-28T05:57:48.035Z,0.70
2023-02-28T06:00:18.727Z,0.70
2023-02-28T06:02:47.238Z,0.70
2023-02-28T06:05:17.089Z,0.60
2023-02-28T06:07:46.933Z,0.60
2023-02-28T06:10:15.909Z,0.60
2023-02-28T06:12:44.499Z,0.60
2023-02-28T06:15:15.901Z,0.60
2023-02-28T06:17:45.256Z,0.60
2023-02-28T06:20:14.729Z,0.60
2023-02-28T06:22:43.764Z,0.70
2023-02-28T06:25:13.661Z,0.70
2023-02-28T06:27:42.048Z,0.70
2023-02-28T06:30:12.057Z,0.60
2023-02-28T06:32:40.593Z,0.60
2023-02-28T06:35:09.887Z,0.60
2023-02-28T06:37:40.800Z,0.60
2023-02-28T06:40:14.712Z,0.70
2023-02-28T06:42:44.020Z,0.70
2023-02-28T06:45:13.748Z,0.70
2023-02-28T06:47:44.188Z,0.70
2023-02-28T06:50:14.628Z,0.80
2023-02-28T06:52:43.011Z,0.80
2023-02-28T06:55:14.413Z,0.80
2023-02-28T06:57:42.703Z,0.80
2023-02-28T07:00:13.079Z,0.90
2023-02-28T07:02:41.372Z,1.00
2023-02-28T07:05:10.541Z,1.30
2023-02-28T07:07:41.536Z,1.60
2023-02-28T07:10:13.976Z,2.00
2023-02-28T07:12:42.240Z,2.20
2023-02-28T07:15:12.098Z,2.50
2023-02-28T07:18:02.193Z,2.80
2023-02-28T07:20:34.088Z,2.90
2023-02-28T07:23:02.299Z,3.00
2023-02-28T07:25:31.872Z,3.10
2023-02-28T07:28:01.138Z,3.20
2023-02-28T07:30:29.628Z,3.20
2023-02-28T07:32:57.997Z,3.10
2023-02-28T07:35:26.261Z,3.10
2023-02-28T07:37:54.489Z,3.00
2023-02-28T07:40:22.952Z,2.90
2023-02-28T07:42:52.512Z,2.90
2023-02-28T07:45:21.020Z,2.80
2023-02-28T07:47:49.311Z,2.80
2023-02-28T07:50:18.649Z,2.80
2023-02-28T07:52:46.927Z,2.90
2023-02-28T07:55:17.541Z,2.80
2023-02-28T07:57:45.768Z,2.90
2023-02-28T08:00:16.572Z,2.90
2023-02-28T08:02:45.331Z,3.00
2023-02-28T08:05:13.631Z,3.10
2023-02-28T08:07:42.052Z,3.30
2023-02-28T08:10:11.865Z,3.40
2023-02-28T08:12:40.061Z,3.40
2023-02-28T08:15:10.371Z,3.50
2023-02-28T08:17:40.173Z,3.60
2023-02-28T08:20:11.317Z,3.60
2023-02-28T08:22:39.578Z,3.70
2023-02-28T08:25:09.348Z,3.80
2023-02-28T08:27:37.909Z,3.80
2023-02-28T08:30:07.982Z,4.00
2023-02-28T08:32:36.528Z,4.10
2023-02-28T08:35:07.236Z,4.20
2023-02-28T08:37:35.568Z,4.20
2023-02-28T08:40:04.978Z,4.30
2023-02-28T08:42:34.757Z,4.30
2023-02-28T08:45:03.056Z,4.50
2023-02-28T08:47:32.078Z,4.60
2023-02-28T08:50:00.422Z,4.70
2023-02-28T08:52:30.125Z,4.70
2023-02-28T08:54:58.399Z,4.90
2023-02-28T08:57:28.346Z,4.90
2023-02-28T08:59:56.545Z,5.00
2023-02-28T09:02:24.867Z,5.10
2023-02-28T09:04:53.102Z,5.10
2023-02-28T09:07:21.322Z,5.20
2023-02-28T09:09:56.639Z,5.30
2023-02-28T09:12:26.823Z,5.30
2023-02-28T09:14:56.117Z,5.50
2023-02-28T09:17:24.618Z,5.40
2023-02-28T09:19:59.617Z,5.50
2023-02-28T09:22:27.915Z,5.50
2023-02-28T09:24:57.701Z,5.50
2023-02-28T09:27:26.008Z,5.60
2023-02-28T09:29:54.272Z,5.60
2023-02-28T09:32:22.538Z,5.70
2023-02-28T09:34:51.204Z,5.70
2023-02-28T09:37:19.492Z,5.70
2023-02-28T09:39:47.725Z,5.70
2023-02-28T09:42:33.401Z,5.80
2023-02-28T09:45:08.262Z,5.90
2023-02-28T09:47:41.497Z,5.80
2023-02-28T09:50:30.673Z,5.90
2023-02-28T09:53:00.254Z,6.00
2023-02-28T09:55:41.589Z,6.10
2023-02-28T09:58:33.788Z,6.20
2023-02-28T10:01:11.955Z,6.30
2023-02-28T10:03:46.953Z,6.30
2023-02-28T10:06:21.297Z,6.10
2023-02-28T10:09:02.391Z,6.20
2023-02-28T10:11:34.867Z,6.10
2023-02-28T10:14:15.265Z,6.00
2023-02-28T10:16:52.739Z,6.10
2023-02-28T10:19:27.929Z,6.20
2023-02-28T10:22:02.521Z,6.20
2023-02-28T10:24:36.943Z,6.30
2023-02-28T10:27:17.901Z,6.30
2023-02-28T10:29:51.253Z,6.20
2023-02-28T10:32:23.458Z,6.30
2023-02-28T10:34:57.515Z,6.50
2023-02-28T10:37:25.740Z,6.70
2023-02-28T10:39:54.068Z,6.70
2023-02-28T10:42:27.555Z,6.80
2023-02-28T10:45:17.831Z,6.90
2023-02-28T10:47:58.748Z,7.00
2023-02-28T10:50:38.858Z,6.90
2023-02-28T10:53:30.222Z,6.90
2023-02-28T10:56:01.756Z,6.90
2023-02-28T10:58:33.123Z,7.00
2023-02-28T11:01:02.816Z,7.10
2023-02-28T11:03:35.809Z,7.10
2023-02-28T11:06:10.574Z,7.20
2023-02-28T11:08:52.621Z,7.20
2023-02-28T11:11:24.610Z,6.90
2023-02-28T11:13:58.056Z,6.80
2023-02-28T11:16:39.166Z,6.90
2023-02-28T11:19:20.827Z,6.80
2023-02-28T11:21:57.935Z,6.90
2023-02-28T11:24:31.851Z,6.80
2023-02-28T11:27:00.265Z,6.90
2023-02-28T11:29:32.272Z,6.90
2023-02-28T11:32:18.627Z,7.10
2023-02-28T11:34:48.558Z,7.00
2023-02-28T11:37:21.344Z,6.90
2023-02-28T11:39:49.903Z,7.00
2023-02-28T11:42:55.674Z,7.10
2023-02-28T11:45:47.302Z,7.30
2023-02-28T11:48:25.313Z,7.40
2023-02-28T11:51:08.839Z,7.50
2023-02-28T11:53:55.374Z,7.50
2023-02-28T11:56:34.158Z,7.60
2023-02-28T11:59:32.560Z,7.60
2023-02-28T12:02:25.563Z,7.60
2023-02-28T12:05:19.374Z,7.70
2023-02-28T12:08:05.177Z,7.70
2023-02-28T12:10:46.128Z,7.70
2023-02-28T12:13:23.751Z,7.80
2023-02-28T12:16:23.532Z,7.80
2023-02-28T12:19:07.582Z,7.80
2023-02-28T12:22:03.538Z,7.70
2023-02-28T12:25:29.495Z,7.70
2023-02-28T12:27:57.994Z,7.70
2023-02-28T12:30:30.823Z,7.70
2023-02-28T12:33:06.301Z,7.70
2023-02-28T12:35:40.325Z,7.60
2023-02-28T12:38:18.613Z,7.80
2023-02-28T12:40:52.598Z,7.80
2023-02-28T12:43:24.401Z,7.70
2023-02-28T12:45:58.980Z,7.70
2023-02-28T12:48:39.222Z,7.70
2023-02-28T12:51:09.847Z,7.80
2023-02-28T12:53:58.852Z,7.80
2023-02-28T12:56:43.076Z,8.00
2023-02-28T12:59:25.794Z,7.90
2023-02-28T13:02:26.124Z,8.00
2023-02-28T13:05:28.190Z,8.00
2023-02-28T13:08:23.338Z,8.00
2023-02-28T13:10:56.108Z,7.80
2023-02-28T13:13:30.497Z,7.90
2023-02-28T13:16:06.711Z,8.00
2023-02-28T13:18:40.428Z,8.00
2023-02-28T13:21:10.454Z,8.00
2023-02-28T13:24:03.836Z,8.00
2023-02-28T13:27:27.542Z,8.10
2023-02-28T13:29:57.246Z,8.00
2023-02-28T13:32:38.366Z,8.00
2023-02-28T13:35:41.390Z,8.00
2023-02-28T13:38:41.741Z,8.00
2023-02-28T13:41:49.572Z,8.00
2023-02-28T13:44:24.592Z,8.00
2023-02-28T13:47:31.414Z,7.80
2023-02-28T13:50:28.957Z,7.80
2023-02-28T13:53:53.525Z,7.80
2023-02-28T13:56:39.208Z,7.80
2023-02-28T13:59:26.241Z,7.80
2023-02-28T14:02:36.482Z,7.80
2023-02-28T14:05:08.502Z,7.90
2023-02-28T14:07:47.924Z,7.90
2023-02-28T14:10:28.688Z,7.90
2023-02-28T14:13:03.657Z,7.90
2023-02-28T14:15:58.003Z,7.90
2023-02-28T14:18:33.131Z,7.80
2023-02-28T14:21:14.013Z,7.80
2023-02-28T14:24:30.293Z,7.90
2023-02-28T14:27:13.794Z,7.90
2023-02-28T14:30:22.355Z,7.90
2023-02-28T14:33:03.634Z,7.70
2023-02-28T14:36:01.917Z,7.70
2023-02-28T14:38:34.290Z,7.80
2023-02-28T14:41:14.559Z,7.80
2023-02-28T14:43:53.765Z,7.90
2023-02-28T14:46:23.435Z,7.80
2023-02-28T14:48:52.522Z,7.80
2023-02-28T14:51:25.184Z,7.80
2023-02-28T14:54:01.249Z,7.80
2023-02-28T14:56:37.717Z,7.80
2023-02-28T14:59:07.532Z,7.80
2023-02-28T15:01:35.851Z,7.70
2023-02-28T15:04:08.154Z,7.70
2023-02-28T15:06:37.751Z,7.80
2023-02-28T15:09:12.801Z,7.80
2023-02-28T15:11:42.234Z,7.70
2023-02-28T15:14:21.353Z,7.70
2023-02-28T15:16:56.651Z,7.70
2023-02-28T15:19:29.220Z,7.70
2023-02-28T15:22:05.463Z,7.70
2023-02-28T15:24:40.829Z,7.70
2023-02-28T15:27:18.046Z,7.80
2023-02-28T15:29:51.888Z,7.80
2023-02-28T15:32:30.417Z,7.70
2023-02-28T15:35:01.553Z,7.70
2023-02-28T15:37:41.491Z,7.60
2023-02-28T15:40:18.553Z,7.60
2023-02-28T15:43:05.938Z,7.40
2023-02-28T15:45:42.250Z,7.40
2023-02-28T15:48:21.862Z,7.30
2023-02-28T15:50:54.368Z,7.30
2023-02-28T15:53:30.135Z,7.20
2023-02-28T15:56:03.470Z,7.20
2023-02-28T15:58:33.041Z,7.10
2023-02-28T16:01:24.121Z,7.10
2023-02-28T16:03:56.995Z,7.10
2023-02-28T16:06:40.651Z,7.20
2023-02-28T16:09:14.526Z,7.10
2023-02-28T16:11:47.775Z,7.00
2023-02-28T16:14:21.037Z,6.90
2023-02-28T16:16:53.833Z,6.80
2023-02-28T16:19:23.227Z,6.80
2023-02-28T16:21:52.095Z,6.70
2023-02-28T16:24:21.856Z,6.70
2023-02-28T16:26:54.192Z,6.60
2023-02-28T16:29:28.963Z,6.50
2023-02-28T16:31:57.688Z,6.50
2023-02-28T16:34:27.020Z,6.40
2023-02-28T16:36:55.662Z,6.40
2023-02-28T16:39:25.534Z,6.40
2023-02-28T16:41:54.790Z,6.30
2023-02-28T16:44:31.029Z,6.30
2023-02-28T16:47:01.878Z,6.20
2023-02-28T16:49:30.333Z,6.20
2023-02-28T16:51:58.633Z,6.10
2023-02-28T16:54:28.321Z,6.10
2023-02-28T16:56:56.741Z,6.00
2023-02-28T16:59:27.836Z,5.90
2023-02-28T17:01:57.767Z,5.90
2023-02-28T17:04:26.959Z,5.80
2023-02-28T17:06:55.814Z,5.80
2023-02-28T17:09:40.043Z,5.70
2023-02-28T17:12:12.659Z,5.70
2023-02-28T17:14:41.269Z,5.60
2023-02-28T17:17:17.819Z,5.60
2023-02-28T17:19:46.268Z,5.60
2023-02-28T17:22:14.941Z,5.50
2023-02-28T17:24:43.425Z,5.40
2023-02-28T17:27:14.889Z,5.30
2023-02-28T17:29:43.475Z,5.20
2023-02-28T17:32:19.003Z,5.20
2023-02-28T17:34:47.594Z,5.10
2023-02-28T17:37:15.861Z,5.00
2023-02-28T17:39:44.101Z,5.00
2023-02-28T17:42:13.672Z,5.00
2023-02-28T17:44:41.905Z,4.90
2023-02-28T17:47:14.066Z,4.90
2023-02-28T17:49:42.617Z,4.80
2023-02-28T17:52:11.070Z,4.70
2023-02-28T17:54:39.252Z,4.60
2023-02-28T17:57:07.506Z,4.50
2023-02-28T17:59:37.109Z,4.40
2023-02-28T18:02:05.854Z,4.40
2023-02-28T18:04:34.217Z,4.30
2023-02-28T18:07:02.638Z,4.30
2023-02-28T18:09:31.007Z,4.20
2023-02-28T18:11:59.352Z,4.20
2023-02-28T18:14:28.043Z,4.20
2023-02-28T18:16:58.199Z,4.20
2023-02-28T18:19:26.893Z,4.20
2023-02-28T18:21:55.794Z,4.20
2023-02-28T18:24:25.615Z,4.20
2023-02-28T18:26:54.198Z,4.20
2023-02-28T18:29:25.220Z,4.20
2023-02-28T18:31:55.115Z,4.20
2023-02-28T18:34:25.464Z,4.20
2023-02-28T18:36:54.327Z,4.20
2023-02-28T18:39:22.593Z,4.10
2023-02-28T18:41:50.901Z,4.10
2023-02-28T18:44:20.885Z,4.00
2023-02-28T18:46:50.068Z,4.00
2023-02-28T18:49:18.955Z,3.90
2023-02-28T18:51:49.037Z,3.90
2023-02-28T18:54:18.391Z,3.80
2023-02-28T18:56:46.951Z,3.70
2023-02-28T18:59:15.232Z,3.70
2023-02-28T19:01:44.530Z,3.70
2023-02-28T19:04:15.191Z,3.60
2023-02-28T19:06:43.825Z,3.60
2023-02-28T19:09:13.450Z,3.50
2023-02-28T19:11:41.966Z,3.40
2023-02-28T19:14:10.315Z,3.40
2023-02-28T19:16:38.775Z,3.40
2023-02-28T19:19:07.418Z,3.40
2023-02-28T19:21:36.592Z,3.40
2023-02-28T19:24:05.826Z,3.30
2023-02-28T19:26:35.440Z,3.30
2023-02-28T19:29:05.152Z,3.20
2023-02-28T19:31:33.849Z,3.20
2023-02-28T19:34:02.926Z,3.10
2023-02-28T19:36:31.274Z,3.00
2023-02-28T19:38:59.497Z,3.00
2023-02-28T19:41:28.282Z,3.00
2023-02-28T19:43:58.108Z,2.90
2023-02-28T19:46:26.366Z,2.90
2023-02-28T19:48:55.323Z,2.80
2023-02-28T19:51:24.122Z,2.70
2023-02-28T19:53:52.705Z,2.60
2023-02-28T19:56:21.022Z,2.50
2023-02-28T19:58:49.401Z,2.50
2023-02-28T20:01:21.315Z,2.50
2023-02-28T20:03:51.190Z,2.50
2023-02-28T20:06:19.773Z,2.50
2023-02-28T20:08:48.068Z,2.50
2023-02-28T20:11:18.461Z,2.40
2023-02-28T20:13:47.296Z,2.40
2023-02-28T20:16:17.894Z,2.40
2023-02-28T20:18:51.228Z,2.30
2023-02-28T20:21:20.182Z,2.30
2023-02-28T20:23:49.488Z,2.30
2023-02-28T20:26:19.976Z,2.30
2023-02-28T20:28:48.993Z,2.30
2023-02-28T20:31:23.163Z,2.30
2023-02-28T20:33:53.190Z,2.30
2023-02-28T20:36:22.729Z,2.30
2023-02-28T20:38:52.800Z,2.30
2023-02-28T20:41:21.740Z,2.30
2023-02-28T20:43:55.579Z,2.20
2023-02-28T20:46:25.558Z,2.20
2023-02-28T20:48:54.141Z,2.10
2023-02-28T20:51:22.712Z,2.00
2023-02-28T20:53:51.176Z,1.90
2023-02-28T20:56:23.594Z,1.90
2023-02-28T20:58:57.471Z,1.90
2023-02-28T21:01:30.059Z,1.80
2023-02-28T21:04:00.956Z,1.60
2023-02-28T21:06:32.401Z,1.60
2023-02-28T21:09:00.960Z,1.60
2023-02-28T21:11:31.760Z,1.60
2023-02-28T21:14:02.130Z,1.60
2023-02-28T21:16:32.596Z,1.60
2023-02-28T21:19:03.992Z,1.60
2023-02-28T21:21:35.093Z,1.60
2023-02-28T21:24:03.551Z,1.60
2023-02-28T21:26:32.719Z,1.50
2023-02-28T21:29:03.812Z,1.50
2023-02-28T21:31:36.440Z,1.50
2023-02-28T21:34:09.343Z,1.50
2023-02-28T21:36:41.480Z,1.50
2023-02-28T21:39:16.090Z,1.50
2023-02-28T21:41:44.613Z,1.40
2023-02-28T21:44:18.158Z,1.40
2023-02-28T21:46:50.517Z,1.40
2023-02-28T21:49:19.621Z,1.40
2023-02-28T21:51:47.945Z,1.40
2023-02-28T21:54:16.178Z,1.40
2023-02-28T21:56:45.078Z,1.40
2023-02-28T21:59:14.063Z,1.40
2023-02-28T22:01:45.282Z,1.30
2023-02-28T22:04:21.082Z,1.30
2023-02-28T22:06:52.692Z,1.30
2023-02-28T22:09:21.537Z,1.30
2023-02-28T22:11:50.317Z,1.30
2023-02-28T22:14:19.391Z,1.30
2023-02-28T22:16:53.772Z,1.30
2023-02-28T22:19:27.664Z,1.30
2023-02-28T22:21:56.499Z,1.40
2023-02-28T22:24:25.033Z,1.50
2023-02-28T22:26:53.977Z,1.50
2023-02-28T22:29:22.341Z,1.50
2023-02-28T22:31:51.322Z,1.50
2023-02-28T22:34:19.714Z,1.70
2023-02-28T22:36:49.311Z,1.80
2023-02-28T22:39:17.601Z,1.80
2023-02-28T22:41:47.181Z,1.70
2023-02-28T22:44:16.311Z,1.70
2023-02-28T22:46:44.684Z,1.60
2023-02-28T22:49:12.967Z,1.60
2023-02-28T22:51:41.243Z,1.50
2023-02-28T22:54:11.769Z,1.50
2023-02-28T22:56:40.081Z,1.40
2023-02-28T22:59:08.468Z,1.30
2023-02-28T23:01:36.934Z,1.30
2023-02-28T23:04:05.818Z,1.30
2023-02-28T23:06:37.757Z,1.20
2023-02-28T23:09:09.612Z,1.20
2023-02-28T23:11:43.870Z,1.10
2023-02-28T23:14:14.248Z,1.10
2023-02-28T23:16:45.459Z,1.10
2023-02-28T23:19:18.525Z,1.10
2023-02-28T23:21:47.561Z,1.10
2023-02-28T23:24:19.586Z,1.10
2023-02-28T23:26:51.861Z,1.00
2023-02-28T23:29:22.367Z,1.00
2023-02-28T23:31:51.224Z,1.00
2023-02-28T23:34:26.122Z,1.00
2023-02-28T23:36:56.444Z,1.00
2023-02-28T23:39:27.066Z,0.90
2023-02-28T23:41:57.342Z,0.90
2023-02-28T23:44:25.818Z,0.90
2023-02-28T23:46:55.529Z,0.90
2023-02-28T23:49:24.085Z,0.90
2023-02-28T23:51:54.224Z,1.00
2023-02-28T23:54:22.750Z,0.80
2023-02-28T23:56:51.131Z,0.80
2023-02-28T23:59:21.219Z,0.80
